createdAt,value
2023-03-11T00:00:10.183Z,1.65
2023-03-11T00:02:11.701Z,1.59
2023-03-11T00:04:13.419Z,1.58
2023-03-11T00:08:16.346Z,1.7
2023-03-11T00:10:18.339Z,1.69
2023-03-11T00:12:20.296Z,1.72
2023-03-11T00:14:21.525Z,1.66
2023-03-11T00:16:22.880Z,1.58
2023-03-11T00:18:23.909Z,1.52
2023-03-11T00:20:25.794Z,1.49
2023-03-11T00:22:27.443Z,1.35
2023-03-11T00:24:29.249Z,1.29
2023-03-11T00:26:30.348Z,1.3
2023-03-11T00:28:34.208Z,1.26
2023-03-11T00:30:33.391Z,1.22
2023-03-11T00:32:34.455Z,1.25
2023-03-11T00:34:35.678Z,1.21
2023-03-11T00:36:36.720Z,1.24
2023-03-11T00:38:37.874Z,1.24
2023-03-11T00:40:39.596Z,1.25
2023-03-11T00:42:40.957Z,1.26
2023-03-11T00:44:42.643Z,1.28
2023-03-11T00:46:43.761Z,1.31
2023-03-11T00:48:45.488Z,1.28
2023-03-11T00:50:46.811Z,1.23
2023-03-11T00:52:48.402Z,1.21
2023-03-11T00:54:50.000Z,1.2
2023-03-11T00:56:51.440Z,1.21
2023-03-11T00:58:53.309Z,1.29
2023-03-11T01:00:54.860Z,1.3
2023-03-11T01:02:55.954Z,1.33
2023-03-11T01:04:57.517Z,1.34
2023-03-11T01:06:58.644Z,1.39
2023-03-11T01:09:00.285Z,1.45
2023-03-11T01:11:01.983Z,1.55
2023-03-11T01:13:03.566Z,1.52
2023-03-11T01:15:05.332Z,1.59
2023-03-11T01:17:07.249Z,1.56
2023-03-11T01:19:08.850Z,1.54
2023-03-11T01:21:10.151Z,1.57
2023-03-11T01:23:11.998Z,1.48
2023-03-11T01:25:13.101Z,1.43
2023-03-11T01:27:14.525Z,1.45
2023-03-11T01:29:15.734Z,1.38
2023-03-11T01:31:17.442Z,1.34
2023-03-11T01:33:18.798Z,1.31
2023-03-11T01:35:19.908Z,1.25
2023-03-11T01:37:21.527Z,1.21
2023-03-11T01:39:23.333Z,1.17
2023-03-11T01:41:24.688Z,1.11
2023-03-11T01:43:26.382Z,1.03
2023-03-11T01:45:27.636Z,0.94
2023-03-11T01:47:29.295Z,0.87
2023-03-11T01:49:30.932Z,0.84
2023-03-11T01:51:32.210Z,0.94
2023-03-11T01:53:33.680Z,0.82
2023-03-11T01:55:35.452Z,0.87
2023-03-11T01:57:36.610Z,0.81
2023-03-11T01:59:37.720Z,0.77
2023-03-11T02:01:38.867Z,0.82
2023-03-11T02:03:40.668Z,0.89
2023-03-11T02:05:42.315Z,0.86
2023-03-11T02:07:44.034Z,0.85
2023-03-11T02:09:45.236Z,0.82
2023-03-11T02:11:46.643Z,0.81
2023-03-11T02:13:48.099Z,0.76
2023-03-11T02:15:49.681Z,0.72
2023-03-11T02:17:51.413Z,0.66
2023-03-11T02:19:53.050Z,0.63
2023-03-11T02:21:54.769Z,0.58
2023-03-11T02:23:56.170Z,0.59
2023-03-11T02:25:57.784Z,0.67
2023-03-11T02:27:59.080Z,0.56
2023-03-11T02:30:01.067Z,0.54
2023-03-11T02:32:02.642Z,0.62
2023-03-11T02:34:04.480Z,0.59
2023-03-11T02:36:06.453Z,0.63
2023-03-11T02:38:08.150Z,0.72
2023-03-11T02:40:09.652Z,0.64
2023-03-11T02:42:10.782Z,0.66
2023-03-11T02:44:12.173Z,0.56
2023-03-11T02:46:14.114Z,0.75
2023-03-11T02:48:15.064Z,0.7
2023-03-11T02:50:16.154Z,0.72
2023-03-11T02:52:27.184Z,0.63
2023-03-11T02:54:19.072Z,0.7
2023-03-11T02:56:20.280Z,0.74
2023-03-11T02:58:21.972Z,0.72
2023-03-11T03:00:23.907Z,0.76
2023-03-11T03:02:25.174Z,0.77
2023-03-11T03:04:27.147Z,0.78
2023-03-11T03:06:28.787Z,0.79
2023-03-11T03:08:30.396Z,0.79
2023-03-11T03:10:31.716Z,0.77
2023-03-11T03:12:33.619Z,0.83
2023-03-11T03:14:34.805Z,0.89
2023-03-11T03:16:35.877Z,0.86
2023-03-11T03:18:37.072Z,0.87
2023-03-11T03:20:38.171Z,0.87
2023-03-11T03:22:39.960Z,0.86
2023-03-11T03:24:41.318Z,0.86
2023-03-11T03:26:43.061Z,0.88
2023-03-11T03:29:28.049Z,0.83
2023-03-11T03:31:29.163Z,0.87
2023-03-11T03:33:31.033Z,0.89
2023-03-11T03:35:33.142Z,0.86
2023-03-11T03:37:34.717Z,0.9
2023-03-11T03:39:36.189Z,0.91
2023-03-11T03:41:38.125Z,0.83
2023-03-11T03:43:40.115Z,0.88
2023-03-11T03:45:41.943Z,0.91
2023-03-11T03:47:43.391Z,0.95
2023-03-11T03:49:44.643Z,0.91
2023-03-11T03:51:46.560Z,0.92
2023-03-11T03:53:47.763Z,0.91
2023-03-11T03:55:49.491Z,0.89
2023-03-11T03:57:51.224Z,0.89
2023-03-11T03:59:52.960Z,0.92
2023-03-11T04:01:54.715Z,0.84
2023-03-11T04:03:55.764Z,0.8
2023-03-11T04:05:57.217Z,0.77
2023-03-11T04:07:58.484Z,0.82
2023-03-11T04:10:00.010Z,0.85
2023-03-11T04:12:01.174Z,0.83
2023-03-11T04:14:03.108Z,0.82
2023-03-11T04:16:05.125Z,0.78
2023-03-11T04:18:06.969Z,0.77
2023-03-11T04:20:08.080Z,0.78
2023-03-11T04:22:09.724Z,0.76
2023-03-11T04:24:11.435Z,0.72
2023-03-11T04:26:12.954Z,0.75
2023-03-11T04:28:14.790Z,0.72
2023-03-11T04:30:15.884Z,0.74
2023-03-11T04:32:17.877Z,0.78
2023-03-11T04:34:19.686Z,0.75
2023-03-11T04:36:21.332Z,0.76
2023-03-11T04:38:22.680Z,0.72
2023-03-11T04:40:24.153Z,0.68
2023-03-11T04:42:25.431Z,0.64
2023-03-11T04:44:27.089Z,0.68
2023-03-11T04:46:28.316Z,0.63
2023-03-11T04:48:29.354Z,0.62
2023-03-11T04:50:30.587Z,0.65
2023-03-11T04:52:31.819Z,0.61
2023-03-11T04:54:33.624Z,0.63
2023-03-11T04:56:35.107Z,0.65
2023-03-11T04:58:36.327Z,0.7
2023-03-11T05:00:38.102Z,0.73
2023-03-11T05:02:39.784Z,0.68
2023-03-11T05:06:43.062Z,0.71
2023-03-11T05:08:44.134Z,0.74
2023-03-11T05:10:45.312Z,0.72
2023-03-11T05:12:47.190Z,0.74
2023-03-11T05:14:49.145Z,0.74
2023-03-11T05:16:50.402Z,0.74
2023-03-11T05:18:51.696Z,0.74
2023-03-11T05:20:53.474Z,0.75
2023-03-11T05:22:54.561Z,0.76
2023-03-11T05:24:55.989Z,0.73
2023-03-11T05:26:57.801Z,0.73
2023-03-11T05:28:59.512Z,0.74
2023-03-11T05:31:01.170Z,0.77
2023-03-11T05:33:02.970Z,0.76
2023-03-11T05:35:04.818Z,0.75
2023-03-11T05:37:06.509Z,0.77
2023-03-11T05:39:07.701Z,0.76
2023-03-11T05:41:09.036Z,0.75
2023-03-11T05:43:19.514Z,0.75
2023-03-11T05:45:12.260Z,0.75
2023-03-11T05:49:15.926Z,0.75
2023-03-11T05:51:17.445Z,0.75
2023-03-11T05:53:19.021Z,0.75
2023-03-11T05:55:20.559Z,0.76
2023-03-11T05:57:21.733Z,0.75
2023-03-11T05:59:23.601Z,0.76
2023-03-11T06:01:25.319Z,0.76
2023-03-11T06:03:26.945Z,0.74
2023-03-11T06:05:28.753Z,0.72
2023-03-11T06:07:29.909Z,0.75
2023-03-11T06:09:31.872Z,0.74
2023-03-11T06:11:33.114Z,0.75
2023-03-11T06:13:34.374Z,0.73
2023-03-11T06:15:35.790Z,0.71
2023-03-11T06:17:37.365Z,0.74
2023-03-11T06:19:39.371Z,0.71
2023-03-11T06:21:40.515Z,0.72
2023-03-11T06:23:42.273Z,0.74
2023-03-11T06:25:43.518Z,0.74
2023-03-11T06:27:44.996Z,0.74
2023-03-11T06:31:48.341Z,0.74
2023-03-11T06:33:49.825Z,0.7
2023-03-11T06:35:50.962Z,0.74
2023-03-11T06:37:52.682Z,0.77
2023-03-11T06:39:53.803Z,0.77
2023-03-11T06:41:55.280Z,0.78
2023-03-11T06:43:57.084Z,0.77
2023-03-11T06:45:58.348Z,0.8
2023-03-11T06:48:00.123Z,0.78
2023-03-11T06:50:01.609Z,0.8
2023-03-11T06:52:03.049Z,0.82
2023-03-11T06:54:04.806Z,0.87
2023-03-11T06:56:06.012Z,0.87
2023-03-11T06:58:07.268Z,0.89
2023-03-11T07:00:08.564Z,0.92
2023-03-11T07:02:10.064Z,0.9
2023-03-11T07:04:11.334Z,0.95
2023-03-11T07:06:13.071Z,1
2023-03-11T07:08:14.252Z,0.98
2023-03-11T07:10:15.742Z,1.04
2023-03-11T07:12:17.505Z,1.08
2023-03-11T07:14:18.961Z,1.14
2023-03-11T07:16:20.339Z,1.26
2023-03-11T07:18:21.978Z,1.38
2023-03-11T07:20:23.086Z,1.4
2023-03-11T07:22:24.933Z,1.7
2023-03-11T07:24:26.622Z,1.94
2023-03-11T07:26:27.732Z,1.82
2023-03-11T07:28:29.018Z,1.96
2023-03-11T07:30:30.347Z,1.88
2023-03-11T07:32:31.703Z,1.94
2023-03-11T07:34:32.697Z,1.97
2023-03-11T07:36:34.092Z,1.94
2023-03-11T07:38:35.389Z,1.76
2023-03-11T07:40:36.761Z,1.93
2023-03-11T07:42:38.633Z,1.78
2023-03-11T07:44:40.303Z,1.73
2023-03-11T07:46:42.172Z,1.76
2023-03-11T07:48:43.556Z,1.78
2023-03-11T07:50:44.717Z,1.77
2023-03-11T07:52:46.354Z,1.79
2023-03-11T07:54:47.974Z,1.81
2023-03-11T07:56:49.224Z,1.8
2023-03-11T07:58:51.185Z,1.75
2023-03-11T08:00:52.320Z,1.79
2023-03-11T08:02:53.948Z,1.64
2023-03-11T08:04:55.806Z,1.7
2023-03-11T08:06:57.580Z,1.75
2023-03-11T08:08:59.343Z,1.8
2023-03-11T08:11:00.959Z,1.99
2023-03-11T08:13:02.659Z,1.96
2023-03-11T08:15:04.478Z,2.03
2023-03-11T08:17:06.160Z,2.06
2023-03-11T08:19:07.299Z,2.07
2023-03-11T08:21:08.899Z,1.99
2023-03-11T08:23:10.334Z,1.97
2023-03-11T08:25:12.228Z,2.01
2023-03-11T08:27:13.956Z,2
2023-03-11T08:29:15.930Z,2.11
2023-03-11T08:31:17.583Z,2.11
2023-03-11T08:33:18.660Z,2.1
2023-03-11T08:35:20.317Z,1.98
2023-03-11T08:37:24.284Z,1.96
2023-03-11T08:39:23.613Z,1.85
2023-03-11T08:41:24.701Z,1.88
2023-03-11T08:43:26.073Z,2.03
2023-03-11T08:45:27.137Z,2.2
2023-03-11T08:47:28.634Z,2.05
2023-03-11T08:49:29.865Z,2.24
2023-03-11T08:51:30.901Z,2.48
2023-03-11T08:53:32.208Z,2.22
2023-03-11T08:55:33.702Z,2.53
2023-03-11T08:57:35.508Z,2.43
2023-03-11T08:59:37.047Z,2.48
2023-03-11T09:01:38.241Z,2.93
2023-03-11T09:03:39.461Z,3.08
2023-03-11T09:05:41.048Z,3.12
2023-03-11T09:07:42.686Z,3.35
2023-03-11T09:09:44.390Z,3.43
2023-03-11T09:11:45.542Z,3.15
2023-03-11T09:13:47.270Z,3.34
2023-03-11T09:15:48.461Z,3.35
2023-03-11T09:17:49.351Z,3.22
2023-03-11T09:19:51.869Z,3.84
2023-03-11T09:21:53.572Z,3.39
2023-03-11T09:23:55.282Z,3.32
2023-03-11T09:25:56.564Z,3.52
2023-03-11T09:27:58.810Z,3.75
2023-03-11T09:30:00.414Z,3.56
2023-03-11T09:32:01.742Z,3.37
2023-03-11T09:34:03.365Z,3.35
2023-03-11T09:38:06.229Z,3.35
2023-03-11T09:40:07.902Z,3.29
2023-03-11T09:42:09.757Z,3.13
2023-03-11T09:44:11.539Z,2.87
2023-03-11T09:46:13.094Z,2.8
2023-03-11T09:48:14.658Z,2.8
2023-03-11T09:50:23.937Z,2.88
2023-03-11T09:52:17.241Z,2.75
2023-03-11T09:54:18.658Z,2.84
2023-03-11T09:56:20.414Z,3.13
2023-03-11T09:58:22.205Z,3.23
2023-03-11T10:00:23.696Z,2.77
2023-03-11T10:02:25.596Z,2.67
2023-03-11T10:04:26.544Z,2.52
2023-03-11T10:06:27.713Z,2.33
2023-03-11T10:08:28.683Z,2.12
2023-03-11T10:10:30.171Z,2.14
2023-03-11T10:12:31.958Z,2.34
2023-03-11T10:15:17.759Z,2.16
2023-03-11T10:17:19.303Z,2.25
2023-03-11T10:19:20.689Z,2.21
2023-03-11T10:21:25.225Z,2.09
2023-03-11T10:23:24.304Z,2.16
2023-03-11T10:25:25.548Z,1.89
2023-03-11T10:27:26.732Z,2.34
2023-03-11T10:29:27.828Z,2.29
2023-03-11T10:31:28.982Z,2.67
2023-03-11T10:33:30.396Z,2.71
2023-03-11T10:35:32.273Z,2.76
2023-03-11T10:37:48.178Z,3.23
2023-03-11T10:39:34.862Z,3.9
2023-03-11T10:41:36.132Z,4.53
2023-03-11T10:43:37.287Z,4.22
2023-03-11T10:45:38.817Z,4.21
2023-03-11T10:47:40.470Z,4.46
2023-03-11T10:49:41.468Z,5.6
2023-03-11T10:51:42.723Z,5.56
2023-03-11T10:53:44.359Z,5.55
2023-03-11T10:55:45.239Z,4.74
2023-03-11T10:57:46.256Z,4.72
2023-03-11T10:59:47.096Z,4.51
2023-03-11T11:01:48.628Z,4.46
2023-03-11T11:03:49.680Z,4.01
2023-03-11T11:05:50.673Z,3.69
2023-03-11T11:07:52.044Z,3.86
2023-03-11T11:09:53.077Z,3.52
2023-03-11T11:11:54.924Z,3.43
2023-03-11T11:13:56.656Z,3.29
2023-03-11T11:15:58.101Z,3.46
2023-03-11T11:17:59.518Z,3.5
2023-03-11T11:20:01.245Z,3.45
2023-03-11T11:22:02.426Z,3.25
2023-03-11T11:24:04.283Z,3.14
2023-03-11T11:26:05.550Z,3.2
2023-03-11T11:28:06.965Z,3.04
2023-03-11T11:30:08.727Z,3.12
2023-03-11T11:32:10.603Z,3.1
2023-03-11T11:34:12.514Z,3.26
2023-03-11T11:36:13.639Z,2.88
2023-03-11T11:38:14.554Z,3.18
2023-03-11T11:40:15.615Z,3.24
2023-03-11T11:42:16.585Z,3.24
2023-03-11T11:44:17.584Z,3.23
2023-03-11T11:46:18.690Z,3.39
2023-03-11T11:48:20.398Z,3.46
2023-03-11T11:50:21.548Z,3.49
2023-03-11T11:52:22.576Z,3.53
2023-03-11T11:56:25.383Z,3.41
2023-03-11T11:58:26.569Z,3.44
2023-03-11T12:00:28.362Z,3.62
2023-03-11T12:02:29.746Z,3.75
2023-03-11T12:04:31.465Z,3.68
2023-03-11T12:06:33.357Z,3.87
2023-03-11T12:08:34.427Z,3.71
2023-03-11T12:10:35.867Z,3.75
2023-03-11T12:12:37.365Z,3.54
2023-03-11T12:14:38.462Z,3.66
2023-03-11T12:16:39.871Z,3.87
2023-03-11T12:18:40.864Z,4.07
2023-03-11T12:20:41.921Z,4.17
2023-03-11T12:22:43.662Z,4.3
2023-03-11T12:24:44.762Z,4.43
2023-03-11T12:26:45.993Z,4.07
2023-03-11T12:28:47.470Z,4.02
2023-03-11T12:30:49.306Z,3.84
2023-03-11T12:32:50.367Z,3.54
2023-03-11T12:34:51.899Z,3.61
2023-03-11T12:36:53.504Z,3.72
2023-03-11T12:38:55.341Z,3.9
2023-03-11T12:40:57.423Z,3.7
2023-03-11T12:42:58.910Z,3.79
2023-03-11T12:45:00.512Z,3.72
2023-03-11T12:47:01.636Z,3.54
2023-03-11T12:49:02.976Z,3.65
2023-03-11T12:51:04.574Z,3.7
2023-03-11T12:53:06.025Z,3.48
2023-03-11T12:55:07.590Z,3.66
2023-03-11T12:57:08.851Z,3.52
2023-03-11T12:59:10.367Z,3.56
2023-03-11T13:01:11.929Z,3.45
2023-03-11T13:03:13.827Z,3.57
2023-03-11T13:05:15.286Z,3.74
2023-03-11T13:07:17.105Z,3.63
2023-03-11T13:09:19.005Z,3.78
2023-03-11T13:11:20.276Z,3.89
2023-03-11T13:13:21.522Z,3.77
2023-03-11T13:15:23.345Z,3.75
2023-03-11T13:17:24.705Z,4.02
2023-03-11T13:19:26.319Z,4.37
2023-03-11T13:21:28.229Z,4.36
2023-03-11T13:23:29.550Z,4.33
2023-03-11T13:25:31.296Z,4.55
2023-03-11T13:27:32.364Z,4.61
2023-03-11T13:29:33.347Z,4.45
2023-03-11T13:31:34.541Z,4.36
2023-03-11T13:33:35.690Z,4.28
2023-03-11T13:35:37.097Z,3.75
2023-03-11T13:37:38.129Z,3.78
2023-03-11T13:39:39.315Z,3.8
2023-03-11T13:41:40.459Z,3.63
2023-03-11T13:43:41.716Z,3.7
2023-03-11T13:45:43.302Z,3.57
2023-03-11T13:47:44.988Z,3.7
2023-03-11T13:49:46.530Z,3.56
2023-03-11T13:51:47.999Z,3.71
2023-03-11T13:53:49.052Z,3.45
2023-03-11T13:55:50.827Z,3.56
2023-03-11T13:57:52.501Z,3.58
2023-03-11T13:59:53.623Z,3.45
2023-03-11T14:01:54.720Z,3.33
2023-03-11T14:03:56.582Z,3.37
2023-03-11T14:05:57.786Z,3.26
2023-03-11T14:07:58.886Z,3.29
2023-03-11T14:10:00.764Z,3.3
2023-03-11T14:12:02.339Z,3.3
2023-03-11T14:14:03.428Z,3.28
2023-03-11T14:16:05.159Z,3.43
2023-03-11T14:20:08.148Z,3.39
2023-03-11T14:22:09.482Z,3.51
2023-03-11T14:24:10.734Z,3.48
2023-03-11T14:26:12.499Z,3.42
2023-03-11T14:28:14.424Z,3.44
2023-03-11T14:30:16.079Z,3.49
2023-03-11T14:32:17.159Z,3.44
2023-03-11T14:34:18.754Z,3.49
2023-03-11T14:36:20.013Z,3.46
2023-03-11T14:38:21.203Z,3.45
2023-03-11T14:40:22.335Z,3.53
2023-03-11T14:42:23.529Z,3.58
2023-03-11T14:44:25.137Z,3.59
2023-03-11T14:46:26.333Z,3.58
2023-03-11T14:48:28.023Z,3.57
2023-03-11T14:50:29.192Z,3.61
2023-03-11T14:52:30.572Z,3.63
2023-03-11T14:54:32.148Z,3.62
2023-03-11T14:56:33.540Z,3.54
2023-03-11T14:58:35.243Z,3.65
2023-03-11T15:02:38.879Z,3.64
2023-03-11T15:04:40.330Z,3.74
2023-03-11T15:06:42.102Z,3.8
2023-03-11T15:08:43.702Z,3.77
2023-03-11T15:10:44.925Z,3.67
2023-03-11T15:12:46.768Z,3.79
2023-03-11T15:14:48.654Z,3.8
2023-03-11T15:16:49.975Z,3.84
2023-03-11T15:18:51.550Z,3.87
2023-03-11T15:20:52.476Z,3.8
2023-03-11T15:22:56.143Z,3.77
2023-03-11T15:24:55.944Z,3.77
2023-03-11T15:26:57.208Z,3.77
2023-03-11T15:28:58.863Z,3.73
2023-03-11T15:31:00.037Z,3.73
2023-03-11T15:33:00.996Z,3.67
2023-03-11T15:35:02.860Z,3.7
2023-03-11T15:37:04.591Z,3.75
2023-03-11T15:39:05.658Z,3.71
2023-03-11T15:41:06.994Z,3.74
2023-03-11T15:43:08.779Z,3.69
2023-03-11T15:45:10.381Z,3.63
2023-03-11T15:47:11.654Z,3.61
2023-03-11T15:49:13.416Z,3.7
2023-03-11T15:51:15.235Z,3.83
2023-03-11T15:53:17.143Z,3.97
2023-03-11T15:55:19.151Z,4.04
2023-03-11T15:57:20.393Z,4.24
2023-03-11T15:59:22.395Z,4.38
2023-03-11T16:01:23.578Z,4.46
2023-03-11T16:03:25.286Z,4.4
2023-03-11T16:05:26.595Z,4.28
2023-03-11T16:07:38.929Z,4.14
2023-03-11T16:09:29.700Z,4.21
2023-03-11T16:11:30.969Z,4.07
2023-03-11T16:13:32.531Z,3.94
2023-03-11T16:15:33.574Z,3.63
2023-03-11T16:17:48.746Z,3.69
2023-03-11T16:19:36.580Z,3.55
2023-03-11T16:21:38.593Z,3.49
2023-03-11T16:23:50.955Z,3.42
2023-03-11T16:25:41.705Z,3.35
2023-03-11T16:27:43.409Z,3.35
2023-03-11T16:29:44.739Z,3.36
2023-03-11T16:31:46.021Z,3.34
2023-03-11T16:33:47.115Z,3.3
2023-03-11T16:35:49.044Z,3.33
2023-03-11T16:37:50.260Z,3.55
2023-03-11T16:39:52.166Z,3.7
2023-03-11T16:41:53.699Z,3.79
2023-03-11T16:43:55.230Z,3.83
2023-03-11T16:45:56.765Z,3.67
2023-03-11T16:47:57.974Z,3.52
2023-03-11T16:49:59.190Z,3.43
2023-03-11T16:52:01.160Z,3.32
2023-03-11T16:54:02.104Z,3.26
2023-03-11T16:56:03.840Z,3.17
2023-03-11T16:58:04.836Z,3.12
2023-03-11T17:00:50.030Z,3.22
2023-03-11T17:02:51.238Z,3.25
2023-03-11T17:04:52.774Z,3.25
2023-03-11T17:06:53.868Z,3.22
2023-03-11T17:08:55.145Z,3.06
2023-03-11T17:10:56.897Z,3.01
2023-03-11T17:12:58.099Z,2.95
2023-03-11T17:14:59.767Z,2.86
2023-03-11T17:17:01.673Z,2.84
2023-03-11T17:19:02.693Z,2.78
2023-03-11T17:21:04.644Z,2.68
2023-03-11T17:23:06.435Z,2.66
2023-03-11T17:25:07.651Z,2.64
2023-03-11T17:27:09.288Z,2.54
2023-03-11T17:29:10.382Z,2.49
2023-03-11T17:31:12.394Z,2.44
2023-03-11T17:33:13.920Z,2.31
2023-03-11T17:35:15.366Z,2.28
2023-03-11T17:37:17.375Z,2.21
2023-03-11T17:39:19.269Z,2.13
2023-03-11T17:41:20.724Z,2.01
2023-03-11T17:43:21.901Z,1.93
2023-03-11T17:45:23.397Z,1.8
2023-03-11T17:47:25.099Z,1.77
2023-03-11T17:49:26.856Z,1.76
2023-03-11T17:51:28.280Z,1.74
2023-03-11T17:53:30.292Z,1.55
2023-03-11T17:55:31.555Z,1.45
2023-03-11T17:57:42.903Z,1.32
2023-03-11T17:59:34.544Z,1.2
2023-03-11T18:01:35.731Z,1.16
2023-03-11T18:03:37.080Z,1.01
2023-03-11T18:05:38.392Z,0.99
2023-03-11T18:07:40.151Z,0.91
2023-03-11T18:09:41.245Z,0.97
2023-03-11T18:11:43.072Z,0.82
2023-03-11T18:13:45.065Z,0.79
2023-03-11T18:15:46.247Z,0.72
2023-03-11T18:17:47.803Z,0.67
2023-03-11T18:19:48.799Z,0.61
2023-03-11T18:21:50.124Z,0.75
2023-03-11T18:23:51.816Z,0.72
2023-03-11T18:25:53.050Z,0.66
2023-03-11T18:27:54.221Z,0.69
2023-03-11T18:29:55.772Z,0.74
2023-03-11T18:31:57.049Z,0.76
2023-03-11T18:33:59.074Z,0.75
2023-03-11T18:36:00.949Z,0.67
2023-03-11T18:38:02.162Z,0.63
2023-03-11T18:40:03.357Z,0.55
2023-03-11T18:42:05.364Z,0.53
2023-03-11T18:46:08.759Z,0.47
2023-03-11T18:48:10.639Z,0.35
2023-03-11T18:50:11.938Z,0.28
2023-03-11T18:52:13.689Z,0.32
2023-03-11T18:54:15.512Z,0.29
2023-03-11T18:56:16.757Z,0.28
2023-03-11T18:58:18.151Z,0.18
2023-03-11T19:00:19.805Z,0.16
2023-03-11T19:02:21.340Z,0.03
2023-03-11T19:04:22.898Z,-0.1
2023-03-11T19:06:24.802Z,-0.21
2023-03-11T19:08:26.527Z,-0.05
2023-03-11T19:10:28.070Z,-0.05
2023-03-11T19:12:29.172Z,-0.07
2023-03-11T19:14:30.409Z,-0.21
2023-03-11T19:16:32.409Z,-0.28
2023-03-11T19:18:33.894Z,-0.28
2023-03-11T19:20:35.959Z,-0.37
2023-03-11T19:22:37.798Z,-0.53
2023-03-11T19:24:39.243Z,-0.65
2023-03-11T19:28:42.207Z,-0.86
2023-03-11T19:30:43.681Z,-0.97
2023-03-11T19:32:45.545Z,-1.08
2023-03-11T19:34:47.361Z,-1.23
2023-03-11T19:36:56.487Z,-1.23
2023-03-11T19:38:49.971Z,-1.37
2023-03-11T19:40:51.416Z,-1.17
2023-03-11T19:42:53.233Z,-0.93
2023-03-11T19:44:54.625Z,-0.81
2023-03-11T19:46:56.355Z,-0.89
2023-03-11T19:48:58.312Z,-0.93
2023-03-11T19:50:59.792Z,-0.95
2023-03-11T19:53:01.769Z,-1
2023-03-11T19:55:02.982Z,-1.01
2023-03-11T19:57:04.855Z,-1.13
2023-03-11T19:59:06.606Z,-1.18
2023-03-11T20:01:08.112Z,-1.22
2023-03-11T20:03:09.646Z,-1.34
2023-03-11T20:05:11.292Z,-1.28
2023-03-11T20:07:13.340Z,-1.17
2023-03-11T20:09:15.383Z,-1.06
2023-03-11T20:11:17.489Z,-1.18
2023-03-11T20:13:18.675Z,-1.28
2023-03-11T20:15:20.666Z,-1.45
2023-03-11T20:17:22.039Z,-1.59
2023-03-11T20:19:23.243Z,-1.63
2023-03-11T20:21:24.913Z,-1.69
2023-03-11T20:23:26.303Z,-1.84
2023-03-11T20:25:27.878Z,-1.84
2023-03-11T20:27:29.115Z,-1.79
2023-03-11T20:29:31.076Z,-1.72
2023-03-11T20:31:32.620Z,-1.72
2023-03-11T20:33:34.005Z,-1.82
2023-03-11T20:35:36.004Z,-1.86
2023-03-11T20:37:36.924Z,-1.96
2023-03-11T20:39:38.525Z,-2.01
2023-03-11T20:43:41.987Z,-2.17
2023-03-11T20:45:44.041Z,-2.08
2023-03-11T20:47:45.593Z,-2.09
2023-03-11T20:49:46.636Z,-2.2
2023-03-11T20:51:47.933Z,-2.26
2023-03-11T20:53:49.407Z,-2.33
2023-03-11T20:55:51.174Z,-2.37
2023-03-11T20:57:52.865Z,-2.05
2023-03-11T20:59:54.736Z,-2
2023-03-11T21:01:56.700Z,-2.02
2023-03-11T21:03:57.943Z,-2.15
2023-03-11T21:05:59.541Z,-2.26
2023-03-11T21:08:00.885Z,-2.34
2023-03-11T21:10:02.156Z,-2.4
2023-03-11T21:12:04.007Z,-2.4
2023-03-11T21:14:05.284Z,-2.48
2023-03-11T21:16:06.724Z,-2.55
2023-03-11T21:18:08.508Z,-2.54
2023-03-11T21:20:10.081Z,-2.55
2023-03-11T21:22:11.970Z,-2.62
2023-03-11T21:26:14.633Z,-2.55
2023-03-11T21:28:15.843Z,-2.38
2023-03-11T21:30:17.640Z,-2.27
2023-03-11T21:32:19.686Z,-2.24
2023-03-11T21:34:21.154Z,-2.22
2023-03-11T21:36:22.782Z,-2.26
2023-03-11T21:38:25.013Z,-2.37
2023-03-11T21:40:25.903Z,-2.47
2023-03-11T21:42:27.434Z,-2.43
2023-03-11T21:44:29.549Z,-2.5
2023-03-11T21:46:31.051Z,-2.53
2023-03-11T21:48:32.465Z,-2.51
2023-03-11T21:50:33.698Z,-2.5
2023-03-11T21:52:35.828Z,-2.47
2023-03-11T21:54:37.206Z,-2.39
2023-03-11T21:56:38.786Z,-2.4
2023-03-11T21:58:40.325Z,-2.4
2023-03-11T22:00:42.287Z,-2.49
2023-03-11T22:02:43.684Z,-2.68
2023-03-11T22:04:45.018Z,-2.81
2023-03-11T22:08:48.591Z,-3.08
2023-03-11T22:10:49.927Z,-2.97
2023-03-11T22:12:51.303Z,-3.11
2023-03-11T22:14:52.684Z,-3.18
2023-03-11T22:16:54.470Z,-2.96
2023-03-11T22:18:56.335Z,-2.8
2023-03-11T22:20:58.392Z,-2.85
2023-03-11T22:23:00.109Z,-2.93
2023-03-11T22:25:01.768Z,-2.99
2023-03-11T22:27:03.191Z,-3.04
2023-03-11T22:29:04.779Z,-2.96
2023-03-11T22:31:05.506Z,-3.03
2023-03-11T22:33:06.722Z,-2.98
2023-03-11T22:35:08.504Z,-3
2023-03-11T22:37:10.002Z,-3.05
2023-03-11T22:39:11.713Z,-3.15
2023-03-11T22:41:13.023Z,-3.22
2023-03-11T22:43:14.555Z,-3.11
2023-03-11T22:45:15.695Z,-3.19
2023-03-11T22:47:16.891Z,-3.2
2023-03-11T22:49:18.091Z,-3.16
2023-03-11T22:51:19.431Z,-3.01
2023-03-11T22:53:21.269Z,-3
2023-03-11T22:55:22.817Z,-2.98
2023-03-11T22:57:24.338Z,-2.95
2023-03-11T22:59:25.829Z,-2.93
2023-03-11T23:01:27.536Z,-2.91
2023-03-11T23:03:29.268Z,-2.95
2023-03-11T23:05:31.163Z,-3.04
2023-03-11T23:07:32.525Z,-3.14
2023-03-11T23:09:34.041Z,-3.31
2023-03-11T23:11:35.762Z,-3.43
2023-03-11T23:13:37.833Z,-3.45
2023-03-11T23:15:39.800Z,-3.43
2023-03-11T23:17:41.213Z,-3.32
2023-03-11T23:19:42.707Z,-3.19
2023-03-11T23:21:44.447Z,-3.19
2023-03-11T23:23:46.390Z,-3.21
2023-03-11T23:25:48.191Z,-3.19
2023-03-11T23:27:50.122Z,-3.18
2023-03-11T23:29:51.392Z,-3.1
2023-03-11T23:31:53.175Z,-3.16
2023-03-11T23:33:54.850Z,-3.27
2023-03-11T23:35:56.145Z,-3.38
2023-03-11T23:37:57.488Z,-3.43
2023-03-11T23:39:58.987Z,-3.44
2023-03-11T23:42:02.098Z,-3.35
2023-03-11T23:44:01.822Z,-3.47
2023-03-11T23:44:45.818Z,-3.48
2023-03-11T23:46:47.021Z,-3.54
2023-03-11T23:48:48.809Z,-3.64
2023-03-11T23:50:50.467Z,-3.63
2023-03-11T23:52:52.167Z,-3.43
2023-03-11T23:54:53.393Z,-3.37
2023-03-11T23:56:54.980Z,-3.46
2023-03-11T23:58:56.324Z,-3.53
